sensor_id;sensor_type;location;lat;lon;timestamp;P1;durP1;ratioP1;P2;durP2;ratioP2
11677;SDS011;5895;41.950;24.372;2024-02-21T00:01:49;21.48;;;18.40;;
11677;SDS011;5895;41.950;24.372;2024-02-21T00:04:16;22.33;;;19.90;;
11677;SDS011;5895;41.950;24.372;2024-02-21T00:06:43;24.33;;;21.23;;
11677;SDS011;5895;41.950;24.372;2024-02-21T00:09:12;25.90;;;23.20;;
11677;SDS011;5895;41.950;24.372;2024-02-21T00:11:39;24.33;;;21.70;;
11677;SDS011;5895;41.950;24.372;2024-02-21T00:14:07;24.63;;;22.02;;
11677;SDS011;5895;41.950;24.372;2024-02-21T00:16:34;28.80;;;25.27;;
11677;SDS011;5895;41.950;24.372;2024-02-21T00:19:01;27.55;;;23.52;;
11677;SDS011;5895;41.950;24.372;2024-02-21T00:21:29;30.05;;;25.70;;
11677;SDS011;5895;41.950;24.372;2024-02-21T00:23:56;29.45;;;24.58;;
11677;SDS011;5895;41.950;24.372;2024-02-21T00:26:25;29.58;;;24.38;;
11677;SDS011;5895;41.950;24.372;2024-02-21T00:28:52;32.72;;;26.20;;
11677;SDS011;5895;41.950;24.372;2024-02-21T00:31:19;31.13;;;27.08;;
11677;SDS011;5895;41.950;24.372;2024-02-21T00:33:47;28.55;;;25.17;;
11677;SDS011;5895;41.950;24.372;2024-02-21T00:36:14;34.78;;;29.38;;
11677;SDS011;5895;41.950;24.372;2024-02-21T00:38:41;31.95;;;28.23;;
11677;SDS011;5895;41.950;24.372;2024-02-21T00:41:08;32.13;;;28.67;;
11677;SDS011;5895;41.950;24.372;2024-02-21T00:43:37;33.05;;;29.52;;
11677;SDS011;5895;41.950;24.372;2024-02-21T00:46:05;32.25;;;28.15;;
11677;SDS011;5895;41.950;24.372;2024-02-21T00:48:32;34.70;;;29.13;;
11677;SDS011;5895;41.950;24.372;2024-02-21T00:51:00;33.05;;;29.23;;
11677;SDS011;5895;41.950;24.372;2024-02-21T00:53:27;31.90;;;28.27;;
11677;SDS011;5895;41.950;24.372;2024-02-21T00:55:54;31.15;;;27.83;;
11677;SDS011;5895;41.950;24.372;2024-02-21T00:58:22;29.08;;;25.77;;
11677;SDS011;5895;41.950;24.372;2024-02-21T01:00:51;30.75;;;25.83;;
11677;SDS011;5895;41.950;24.372;2024-02-21T01:03:18;27.38;;;24.02;;
11677;SDS011;5895;41.950;24.372;2024-02-21T01:05:45;30.80;;;26.48;;
11677;SDS011;5895;41.950;24.372;2024-02-21T01:08:12;25.50;;;22.73;;
11677;SDS011;5895;41.950;24.372;2024-02-21T01:10:40;28.65;;;25.33;;
11677;SDS011;5895;41.950;24.372;2024-02-21T01:13:08;28.50;;;23.85;;
11677;SDS011;5895;41.950;24.372;2024-02-21T01:15:35;28.45;;;25.02;;
11677;SDS011;5895;41.950;24.372;2024-02-21T01:18:04;29.67;;;26.52;;
11677;SDS011;5895;41.950;24.372;2024-02-21T01:20:31;29.95;;;24.52;;
11677;SDS011;5895;41.950;24.372;2024-02-21T01:22:59;26.60;;;23.73;;
11677;SDS011;5895;41.950;24.372;2024-02-21T01:25:26;26.55;;;21.08;;
11677;SDS011;5895;41.950;24.372;2024-02-21T01:27:53;25.00;;;21.90;;
11677;SDS011;5895;41.950;24.372;2024-02-21T01:30:20;24.63;;;20.83;;
11677;SDS011;5895;41.950;24.372;2024-02-21T01:32:48;28.63;;;22.88;;
11677;SDS011;5895;41.950;24.372;2024-02-21T01:35:17;27.75;;;24.75;;
11677;SDS011;5895;41.950;24.372;2024-02-21T01:37:44;28.70;;;24.42;;
11677;SDS011;5895;41.950;24.372;2024-02-21T01:40:12;27.70;;;23.73;;
11677;SDS011;5895;41.950;24.372;2024-02-21T01:42:39;26.85;;;23.20;;
11677;SDS011;5895;41.950;24.372;2024-02-21T01:45:07;29.08;;;24.95;;
11677;SDS011;5895;41.950;24.372;2024-02-21T01:47:35;29.75;;;25.42;;
11677;SDS011;5895;41.950;24.372;2024-02-21T01:50:04;27.25;;;24.30;;
11677;SDS011;5895;41.950;24.372;2024-02-21T01:52:33;27.67;;;24.13;;
11677;SDS011;5895;41.950;24.372;2024-02-21T01:55:02;28.58;;;25.52;;
11677;SDS011;5895;41.950;24.372;2024-02-21T01:57:29;27.67;;;24.67;;
11677;SDS011;5895;41.950;24.372;2024-02-21T01:59:57;28.23;;;25.17;;
11677;SDS011;5895;41.950;24.372;2024-02-21T02:02:24;26.05;;;23.35;;
11677;SDS011;5895;41.950;24.372;2024-02-21T02:04:52;26.45;;;22.58;;
11677;SDS011;5895;41.950;24.372;2024-02-21T02:07:20;25.20;;;22.55;;
11677;SDS011;5895;41.950;24.372;2024-02-21T02:09:49;25.60;;;22.08;;
11677;SDS011;5895;41.950;24.372;2024-02-21T02:12:16;25.35;;;22.60;;
11677;SDS011;5895;41.950;24.372;2024-02-21T02:14:44;24.35;;;21.58;;
11677;SDS011;5895;41.950;24.372;2024-02-21T02:17:11;24.33;;;21.73;;
11677;SDS011;5895;41.950;24.372;2024-02-21T02:19:38;25.85;;;23.08;;
11677;SDS011;5895;41.950;24.372;2024-02-21T02:22:07;26.02;;;23.17;;
11677;SDS011;5895;41.950;24.372;2024-02-21T02:24:40;26.95;;;24.15;;
11677;SDS011;5895;41.950;24.372;2024-02-21T02:27:07;25.23;;;22.63;;
11677;SDS011;5895;41.950;24.372;2024-02-21T02:29:34;25.50;;;22.48;;
11677;SDS011;5895;41.950;24.372;2024-02-21T02:32:02;25.60;;;21.63;;
11677;SDS011;5895;41.950;24.372;2024-02-21T02:34:30;23.27;;;20.92;;
11677;SDS011;5895;41.950;24.372;2024-02-21T02:36:58;24.67;;;21.17;;
11677;SDS011;5895;41.950;24.372;2024-02-21T02:39:25;22.83;;;20.33;;
11677;SDS011;5895;41.950;24.372;2024-02-21T02:41:54;21.40;;;18.98;;
11677;SDS011;5895;41.950;24.372;2024-02-21T02:44:21;23.20;;;19.58;;
11677;SDS011;5895;41.950;24.372;2024-02-21T02:46:49;22.25;;;19.70;;
11677;SDS011;5895;41.950;24.372;2024-02-21T02:49:16;21.85;;;19.27;;
11677;SDS011;5895;41.950;24.372;2024-02-21T02:51:44;26.58;;;20.33;;
11677;SDS011;5895;41.950;24.372;2024-02-21T02:54:11;22.70;;;20.13;;
11677;SDS011;5895;41.950;24.372;2024-02-21T02:56:39;24.40;;;20.63;;
11677;SDS011;5895;41.950;24.372;2024-02-21T02:59:08;22.67;;;19.73;;
11677;SDS011;5895;41.950;24.372;2024-02-21T03:01:35;28.52;;;23.90;;
11677;SDS011;5895;41.950;24.372;2024-02-21T03:04:03;30.75;;;24.27;;
11677;SDS011;5895;41.950;24.372;2024-02-21T03:06:31;28.40;;;24.50;;
11677;SDS011;5895;41.950;24.372;2024-02-21T03:08:59;30.40;;;24.77;;
11677;SDS011;5895;41.950;24.372;2024-02-21T03:11:34;30.38;;;25.60;;
11677;SDS011;5895;41.950;24.372;2024-02-21T03:14:02;30.95;;;27.65;;
11677;SDS011;5895;41.950;24.372;2024-02-21T03:16:31;30.77;;;26.27;;
11677;SDS011;5895;41.950;24.372;2024-02-21T03:19:01;30.25;;;26.95;;
11677;SDS011;5895;41.950;24.372;2024-02-21T03:21:28;30.40;;;26.30;;
11677;SDS011;5895;41.950;24.372;2024-02-21T03:23:56;29.88;;;26.58;;
11677;SDS011;5895;41.950;24.372;2024-02-21T03:26:23;26.27;;;21.38;;
11677;SDS011;5895;41.950;24.372;2024-02-21T03:28:50;25.35;;;22.20;;
11677;SDS011;5895;41.950;24.372;2024-02-21T03:31:18;24.15;;;21.60;;
11677;SDS011;5895;41.950;24.372;2024-02-21T03:33:47;25.35;;;20.98;;
11677;SDS011;5895;41.950;24.372;2024-02-21T03:36:14;24.08;;;21.05;;
11677;SDS011;5895;41.950;24.372;2024-02-21T03:38:41;24.23;;;21.65;;
11677;SDS011;5895;41.950;24.372;2024-02-21T03:41:09;23.80;;;21.30;;
11677;SDS011;5895;41.950;24.372;2024-02-21T03:43:37;28.85;;;24.33;;
11677;SDS011;5895;41.950;24.372;2024-02-21T03:46:04;29.08;;;24.92;;
11677;SDS011;5895;41.950;24.372;2024-02-21T03:48:31;27.55;;;24.52;;
11677;SDS011;5895;41.950;24.372;2024-02-21T03:51:00;29.20;;;25.05;;
11677;SDS011;5895;41.950;24.372;2024-02-21T03:53:27;28.77;;;25.73;;
11677;SDS011;5895;41.950;24.372;2024-02-21T03:55:55;31.58;;;28.10;;
11677;SDS011;5895;41.950;24.372;2024-02-21T03:58:28;32.85;;;27.23;;
11677;SDS011;5895;41.950;24.372;2024-02-21T04:00:55;32.33;;;27.70;;
11677;SDS011;5895;41.950;24.372;2024-02-21T04:03:22;32.90;;;27.95;;
11677;SDS011;5895;41.950;24.372;2024-02-21T04:05:49;33.30;;;27.13;;
11677;SDS011;5895;41.950;24.372;2024-02-21T04:08:18;28.80;;;25.63;;
11677;SDS011;5895;41.950;24.372;2024-02-21T04:10:45;29.50;;;24.95;;
11677;SDS011;5895;41.950;24.372;2024-02-21T04:13:14;30.35;;;26.17;;
11677;SDS011;5895;41.950;24.372;2024-02-21T04:15:41;33.38;;;27.83;;
11677;SDS011;5895;41.950;24.372;2024-02-21T04:18:08;32.17;;;28.17;;
11677;SDS011;5895;41.950;24.372;2024-02-21T04:20:36;31.95;;;28.52;;
11677;SDS011;5895;41.950;24.372;2024-02-21T04:23:03;33.38;;;26.90;;
11677;SDS011;5895;41.950;24.372;2024-02-21T04:25:32;35.80;;;29.52;;
11677;SDS011;5895;41.950;24.372;2024-02-21T04:27:59;32.05;;;28.50;;
11677;SDS011;5895;41.950;24.372;2024-02-21T04:30:27;35.42;;;29.60;;
11677;SDS011;5895;41.950;24.372;2024-02-21T04:32:54;37.17;;;29.98;;
11677;SDS011;5895;41.950;24.372;2024-02-21T04:35:21;32.00;;;26.27;;
11677;SDS011;5895;41.950;24.372;2024-02-21T04:37:48;28.00;;;23.73;;
11677;SDS011;5895;41.950;24.372;2024-02-21T04:40:16;30.02;;;24.65;;
11677;SDS011;5895;41.950;24.372;2024-02-21T04:42:45;25.30;;;22.23;;
11677;SDS011;5895;41.950;24.372;2024-02-21T04:45:12;23.13;;;18.23;;
11677;SDS011;5895;41.950;24.372;2024-02-21T04:47:39;20.20;;;18.10;;
11677;SDS011;5895;41.950;24.372;2024-02-21T04:50:07;27.27;;;24.35;;
11677;SDS011;5895;41.950;24.372;2024-02-21T04:52:34;29.98;;;24.42;;
11677;SDS011;5895;41.950;24.372;2024-02-21T04:55:01;26.73;;;23.70;;
11677;SDS011;5895;41.950;24.372;2024-02-21T04:57:29;28.52;;;24.58;;
11677;SDS011;5895;41.950;24.372;2024-02-21T04:59:57;23.90;;;20.33;;
11677;SDS011;5895;41.950;24.372;2024-02-21T05:02:24;20.52;;;18.42;;
11677;SDS011;5895;41.950;24.372;2024-02-21T05:04:52;20.70;;;18.60;;
11677;SDS011;5895;41.950;24.372;2024-02-21T05:07:19;21.92;;;19.63;;
11677;SDS011;5895;41.950;24.372;2024-02-21T05:09:47;20.52;;;18.35;;
11677;SDS011;5895;41.950;24.372;2024-02-21T05:12:14;20.65;;;18.45;;
11677;SDS011;5895;41.950;24.372;2024-02-21T05:14:41;25.23;;;21.75;;
11677;SDS011;5895;41.950;24.372;2024-02-21T05:17:10;23.80;;;21.25;;
11677;SDS011;5895;41.950;24.372;2024-02-21T05:19:37;21.17;;;18.98;;
11677;SDS011;5895;41.950;24.372;2024-02-21T05:22:05;23.45;;;20.55;;
11677;SDS011;5895;41.950;24.372;2024-02-21T05:24:32;22.15;;;17.90;;
11677;SDS011;5895;41.950;24.372;2024-02-21T05:27:00;18.52;;;16.63;;
11677;SDS011;5895;41.950;24.372;2024-02-21T05:29:27;19.15;;;17.23;;
11677;SDS011;5895;41.950;24.372;2024-02-21T05:31:55;22.75;;;19.42;;
11677;SDS011;5895;41.950;24.372;2024-02-21T05:34:25;24.48;;;20.70;;
11677;SDS011;5895;41.950;24.372;2024-02-21T05:36:53;25.95;;;21.90;;
11677;SDS011;5895;41.950;24.372;2024-02-21T05:39:20;24.55;;;21.95;;
11677;SDS011;5895;41.950;24.372;2024-02-21T05:41:48;20.33;;;16.73;;
11677;SDS011;5895;41.950;24.372;2024-02-21T05:44:16;20.63;;;18.45;;
11677;SDS011;5895;41.950;24.372;2024-02-21T05:46:43;21.80;;;17.85;;
11677;SDS011;5895;41.950;24.372;2024-02-21T05:49:11;16.92;;;14.27;;
11677;SDS011;5895;41.950;24.372;2024-02-21T05:51:40;18.40;;;14.05;;
11677;SDS011;5895;41.950;24.372;2024-02-21T05:54:08;13.35;;;11.88;;
11677;SDS011;5895;41.950;24.372;2024-02-21T05:56:35;12.43;;;10.85;;
11677;SDS011;5895;41.950;24.372;2024-02-21T05:59:02;12.60;;;11.40;;
11677;SDS011;5895;41.950;24.372;2024-02-21T06:01:30;13.15;;;11.63;;
11677;SDS011;5895;41.950;24.372;2024-02-21T06:03:57;12.20;;;11.00;;
11677;SDS011;5895;41.950;24.372;2024-02-21T06:06:24;10.35;;;9.35;;
11677;SDS011;5895;41.950;24.372;2024-02-21T06:08:53;11.23;;;10.13;;
11677;SDS011;5895;41.950;24.372;2024-02-21T06:11:21;11.35;;;10.25;;
11677;SDS011;5895;41.950;24.372;2024-02-21T06:13:48;11.50;;;10.40;;
11677;SDS011;5895;41.950;24.372;2024-02-21T06:16:15;11.25;;;9.93;;
11677;SDS011;5895;41.950;24.372;2024-02-21T06:18:42;10.35;;;9.27;;
11677;SDS011;5895;41.950;24.372;2024-02-21T06:21:09;10.63;;;9.63;;
11677;SDS011;5895;41.950;24.372;2024-02-21T06:23:37;11.25;;;10.15;;
11677;SDS011;5895;41.950;24.372;2024-02-21T06:26:06;13.80;;;12.40;;
11677;SDS011;5895;41.950;24.372;2024-02-21T06:28:34;14.25;;;12.75;;
11677;SDS011;5895;41.950;24.372;2024-02-21T06:31:02;14.25;;;12.80;;
11677;SDS011;5895;41.950;24.372;2024-02-21T06:33:30;15.60;;;13.07;;
11677;SDS011;5895;41.950;24.372;2024-02-21T06:35:59;12.32;;;11.15;;
11677;SDS011;5895;41.950;24.372;2024-02-21T06:38:38;12.30;;;11.00;;
11677;SDS011;5895;41.950;24.372;2024-02-21T06:41:14;12.40;;;11.20;;
11677;SDS011;5895;41.950;24.372;2024-02-21T06:43:44;11.38;;;10.27;;
11677;SDS011;5895;41.950;24.372;2024-02-21T06:46:12;12.02;;;10.77;;
11677;SDS011;5895;41.950;24.372;2024-02-21T06:48:49;11.60;;;10.45;;
11677;SDS011;5895;41.950;24.372;2024-02-21T06:51:16;12.05;;;10.95;;
11677;SDS011;5895;41.950;24.372;2024-02-21T06:53:44;11.48;;;10.25;;
11677;SDS011;5895;41.950;24.372;2024-02-21T06:56:13;9.70;;;8.70;;
11677;SDS011;5895;41.950;24.372;2024-02-21T06:58:41;11.15;;;9.98;;
11677;SDS011;5895;41.950;24.372;2024-02-21T07:01:08;9.63;;;8.63;;
11677;SDS011;5895;41.950;24.372;2024-02-21T07:03:36;10.73;;;9.65;;
11677;SDS011;5895;41.950;24.372;2024-02-21T07:06:04;11.02;;;9.90;;
11677;SDS011;5895;41.950;24.372;2024-02-21T07:08:32;10.88;;;9.77;;
11677;SDS011;5895;41.950;24.372;2024-02-21T07:10:59;9.88;;;8.88;;
11677;SDS011;5895;41.950;24.372;2024-02-21T07:13:28;9.45;;;8.55;;
11677;SDS011;5895;41.950;24.372;2024-02-21T07:15:56;8.80;;;8.00;;
11677;SDS011;5895;41.950;24.372;2024-02-21T07:18:23;11.05;;;9.95;;
11677;SDS011;5895;41.950;24.372;2024-02-21T07:20:51;10.45;;;9.35;;
11677;SDS011;5895;41.950;24.372;2024-02-21T07:23:19;20.10;;;15.48;;
11677;SDS011;5895;41.950;24.372;2024-02-21T07:25:46;24.23;;;17.90;;
11677;SDS011;5895;41.950;24.372;2024-02-21T07:28:14;11.27;;;9.90;;
11677;SDS011;5895;41.950;24.372;2024-02-21T07:30:44;12.70;;;11.05;;
11677;SDS011;5895;41.950;24.372;2024-02-21T07:33:11;16.30;;;13.85;;
11677;SDS011;5895;41.950;24.372;2024-02-21T07:35:39;10.85;;;9.75;;
11677;SDS011;5895;41.950;24.372;2024-02-21T07:38:07;13.52;;;11.38;;
11677;SDS011;5895;41.950;24.372;2024-02-21T07:40:37;10.90;;;9.80;;
11677;SDS011;5895;41.950;24.372;2024-02-21T07:43:05;11.23;;;10.13;;
11677;SDS011;5895;41.950;24.372;2024-02-21T07:45:32;9.20;;;8.30;;
11677;SDS011;5895;41.950;24.372;2024-02-21T07:48:01;9.57;;;8.57;;
11677;SDS011;5895;41.950;24.372;2024-02-21T07:50:28;10.88;;;9.73;;
11677;SDS011;5895;41.950;24.372;2024-02-21T07:52:56;9.00;;;8.10;;
11677;SDS011;5895;41.950;24.372;2024-02-21T07:55:23;9.10;;;8.05;;
11677;SDS011;5895;41.950;24.372;2024-02-21T07:57:51;9.13;;;7.82;;
11677;SDS011;5895;41.950;24.372;2024-02-21T08:00:18;8.32;;;7.53;;
11677;SDS011;5895;41.950;24.372;2024-02-21T08:02:47;7.72;;;7.03;;
11677;SDS011;5895;41.950;24.372;2024-02-21T08:05:18;6.60;;;6.00;;
11677;SDS011;5895;41.950;24.372;2024-02-21T08:07:45;7.68;;;6.97;;
11677;SDS011;5895;41.950;24.372;2024-02-21T08:10:12;6.95;;;6.35;;
11677;SDS011;5895;41.950;24.372;2024-02-21T08:12:39;7.03;;;6.38;;
11677;SDS011;5895;41.950;24.372;2024-02-21T08:15:06;7.28;;;6.57;;
11677;SDS011;5895;41.950;24.372;2024-02-21T08:17:36;7.88;;;7.07;;
11677;SDS011;5895;41.950;24.372;2024-02-21T08:20:03;7.80;;;7.00;;
11677;SDS011;5895;41.950;24.372;2024-02-21T08:22:32;6.82;;;6.13;;
11677;SDS011;5895;41.950;24.372;2024-02-21T08:24:59;7.88;;;7.07;;
11677;SDS011;5895;41.950;24.372;2024-02-21T08:27:26;15.38;;;10.77;;
11677;SDS011;5895;41.950;24.372;2024-02-21T08:29:53;13.13;;;11.32;;
11677;SDS011;5895;41.950;24.372;2024-02-21T08:32:20;11.00;;;8.35;;
11677;SDS011;5895;41.950;24.372;2024-02-21T08:34:47;10.10;;;9.10;;
11677;SDS011;5895;41.950;24.372;2024-02-21T08:37:14;12.80;;;10.73;;
11677;SDS011;5895;41.950;24.372;2024-02-21T08:39:42;11.77;;;9.77;;
11677;SDS011;5895;41.950;24.372;2024-02-21T08:42:09;10.35;;;9.23;;
11677;SDS011;5895;41.950;24.372;2024-02-21T08:44:36;13.73;;;12.32;;
11677;SDS011;5895;41.950;24.372;2024-02-21T08:47:06;8.55;;;7.75;;
11677;SDS011;5895;41.950;24.372;2024-02-21T08:49:35;7.90;;;7.10;;
11677;SDS011;5895;41.950;24.372;2024-02-21T08:52:02;10.10;;;9.10;;
11677;SDS011;5895;41.950;24.372;2024-02-21T08:54:30;9.10;;;8.05;;
11677;SDS011;5895;41.950;24.372;2024-02-21T08:56:59;7.82;;;7.13;;
11677;SDS011;5895;41.950;24.372;2024-02-21T08:59:26;8.05;;;7.30;;
11677;SDS011;5895;41.950;24.372;2024-02-21T09:01:53;7.72;;;7.03;;
11677;SDS011;5895;41.950;24.372;2024-02-21T09:04:20;8.40;;;7.60;;
11677;SDS011;5895;41.950;24.372;2024-02-21T09:06:47;10.90;;;8.20;;
11677;SDS011;5895;41.950;24.372;2024-02-21T09:09:14;8.93;;;8.13;;
11677;SDS011;5895;41.950;24.372;2024-02-21T09:11:41;8.95;;;8.05;;
11677;SDS011;5895;41.950;24.372;2024-02-21T09:14:09;8.77;;;7.88;;
11677;SDS011;5895;41.950;24.372;2024-02-21T09:16:37;10.63;;;9.60;;
11677;SDS011;5895;41.950;24.372;2024-02-21T09:19:04;10.07;;;9.07;;
11677;SDS011;5895;41.950;24.372;2024-02-21T09:21:31;10.07;;;9.07;;
11677;SDS011;5895;41.950;24.372;2024-02-21T09:23:58;8.45;;;7.65;;
11677;SDS011;5895;41.950;24.372;2024-02-21T09:26:25;7.35;;;6.65;;
11677;SDS011;5895;41.950;24.372;2024-02-21T09:28:52;6.18;;;5.60;;
11677;SDS011;5895;41.950;24.372;2024-02-21T09:31:20;6.30;;;5.70;;
11677;SDS011;5895;41.950;24.372;2024-02-21T09:33:47;9.13;;;8.18;;
11677;SDS011;5895;41.950;24.372;2024-02-21T09:36:14;10.15;;;8.38;;
11677;SDS011;5895;41.950;24.372;2024-02-21T09:38:41;7.68;;;6.97;;
11677;SDS011;5895;41.950;24.372;2024-02-21T09:41:11;8.90;;;8.00;;
11677;SDS011;5895;41.950;24.372;2024-02-21T09:43:43;8.18;;;7.38;;
11677;SDS011;5895;41.950;24.372;2024-02-21T09:46:13;8.23;;;7.50;;
11677;SDS011;5895;41.950;24.372;2024-02-21T09:48:53;8.13;;;7.32;;
11677;SDS011;5895;41.950;24.372;2024-02-21T09:51:30;8.15;;;7.35;;
11677;SDS011;5895;41.950;24.372;2024-02-21T09:54:00;8.25;;;7.45;;
11677;SDS011;5895;41.950;24.372;2024-02-21T09:56:29;5.95;;;5.35;;
11677;SDS011;5895;41.950;24.372;2024-02-21T09:58:56;6.63;;;5.75;;
11677;SDS011;5895;41.950;24.372;2024-02-21T10:01:24;6.00;;;5.50;;
11677;SDS011;5895;41.950;24.372;2024-02-21T10:03:53;6.32;;;5.72;;
11677;SDS011;5895;41.950;24.372;2024-02-21T10:06:20;6.40;;;5.80;;
11677;SDS011;5895;41.950;24.372;2024-02-21T10:08:51;6.85;;;6.18;;
11677;SDS011;5895;41.950;24.372;2024-02-21T10:11:22;6.15;;;5.57;;
11677;SDS011;5895;41.950;24.372;2024-02-21T10:13:49;5.95;;;5.43;;
11677;SDS011;5895;41.950;24.372;2024-02-21T10:16:16;5.82;;;5.22;;
11677;SDS011;5895;41.950;24.372;2024-02-21T10:18:44;6.35;;;5.47;;
11677;SDS011;5895;41.950;24.372;2024-02-21T10:21:12;7.53;;;6.80;;
11677;SDS011;5895;41.950;24.372;2024-02-21T10:23:43;6.38;;;5.78;;
11677;SDS011;5895;41.950;24.372;2024-02-21T10:26:10;6.60;;;6.00;;
11677;SDS011;5895;41.950;24.372;2024-02-21T10:28:37;6.43;;;5.80;;
11677;SDS011;5895;41.950;24.372;2024-02-21T10:31:07;9.85;;;8.30;;
11677;SDS011;5895;41.950;24.372;2024-02-21T10:33:36;13.32;;;10.80;;
11677;SDS011;5895;41.950;24.372;2024-02-21T10:36:06;8.63;;;7.75;;
11677;SDS011;5895;41.950;24.372;2024-02-21T10:38:37;6.07;;;5.47;;
11677;SDS011;5895;41.950;24.372;2024-02-21T10:41:04;12.10;;;10.85;;
11677;SDS011;5895;41.950;24.372;2024-02-21T10:43:33;10.10;;;8.75;;
11677;SDS011;5895;41.950;24.372;2024-02-21T10:46:08;31.45;;;21.60;;
11677;SDS011;5895;41.950;24.372;2024-02-21T10:48:41;16.88;;;12.55;;
11677;SDS011;5895;41.950;24.372;2024-02-21T10:51:14;18.55;;;14.65;;
11677;SDS011;5895;41.950;24.372;2024-02-21T10:53:49;11.63;;;10.23;;
11677;SDS011;5895;41.950;24.372;2024-02-21T10:56:26;12.73;;;10.63;;
11677;SDS011;5895;41.950;24.372;2024-02-21T10:58:56;8.23;;;7.43;;
11677;SDS011;5895;41.950;24.372;2024-02-21T11:01:24;6.90;;;6.20;;
11677;SDS011;5895;41.950;24.372;2024-02-21T11:03:54;6.85;;;6.15;;
11677;SDS011;5895;41.950;24.372;2024-02-21T11:06:23;6.93;;;6.30;;
11677;SDS011;5895;41.950;24.372;2024-02-21T11:09:02;6.93;;;6.32;;
11677;SDS011;5895;41.950;24.372;2024-02-21T11:11:30;7.45;;;6.75;;
11677;SDS011;5895;41.950;24.372;2024-02-21T11:14:06;9.32;;;8.23;;
11677;SDS011;5895;41.950;24.372;2024-02-21T11:16:35;9.02;;;8.23;;
11677;SDS011;5895;41.950;24.372;2024-02-21T11:19:04;8.80;;;7.90;;
11677;SDS011;5895;41.950;24.372;2024-02-21T11:21:32;7.38;;;6.68;;
11677;SDS011;5895;41.950;24.372;2024-02-21T11:24:02;6.57;;;6.00;;
11677;SDS011;5895;41.950;24.372;2024-02-21T11:26:30;6.78;;;6.13;;
11677;SDS011;5895;41.950;24.372;2024-02-21T11:28:57;7.00;;;6.32;;
11677;SDS011;5895;41.950;24.372;2024-02-21T11:31:25;7.47;;;6.78;;
11677;SDS011;5895;41.950;24.372;2024-02-21T11:33:52;6.72;;;6.13;;
11677;SDS011;5895;41.950;24.372;2024-02-21T11:36:26;6.65;;;6.05;;
11677;SDS011;5895;41.950;24.372;2024-02-21T11:38:54;6.32;;;5.72;;
11677;SDS011;5895;41.950;24.372;2024-02-21T11:41:22;5.97;;;5.38;;
11677;SDS011;5895;41.950;24.372;2024-02-21T11:43:49;6.00;;;5.40;;
11677;SDS011;5895;41.950;24.372;2024-02-21T11:46:17;6.45;;;5.90;;
11677;SDS011;5895;41.950;24.372;2024-02-21T11:48:45;8.20;;;7.32;;
11677;SDS011;5895;41.950;24.372;2024-02-21T11:51:20;8.07;;;7.28;;
11677;SDS011;5895;41.950;24.372;2024-02-21T11:53:50;6.32;;;5.82;;
11677;SDS011;5895;41.950;24.372;2024-02-21T11:56:18;6.53;;;5.57;;
11677;SDS011;5895;41.950;24.372;2024-02-21T11:58:47;5.38;;;4.88;;
11677;SDS011;5895;41.950;24.372;2024-02-21T12:01:14;6.07;;;5.50;;
11677;SDS011;5895;41.950;24.372;2024-02-21T12:03:42;5.30;;;4.80;;
11677;SDS011;5895;41.950;24.372;2024-02-21T12:06:15;5.68;;;5.15;;
11677;SDS011;5895;41.950;24.372;2024-02-21T12:08:45;5.50;;;5.00;;
11677;SDS011;5895;41.950;24.372;2024-02-21T12:11:16;5.05;;;4.65;;
11677;SDS011;5895;41.950;24.372;2024-02-21T12:13:48;6.22;;;5.63;;
11677;SDS011;5895;41.950;24.372;2024-02-21T12:16:26;5.80;;;5.30;;
11677;SDS011;5895;41.950;24.372;2024-02-21T12:18:54;5.10;;;4.60;;
11677;SDS011;5895;41.950;24.372;2024-02-21T12:21:23;5.25;;;4.57;;
11677;SDS011;5895;41.950;24.372;2024-02-21T12:23:53;5.03;;;4.53;;
11677;SDS011;5895;41.950;24.372;2024-02-21T12:26:20;4.70;;;4.30;;
11677;SDS011;5895;41.950;24.372;2024-02-21T12:28:48;5.40;;;4.90;;
11677;SDS011;5895;41.950;24.372;2024-02-21T12:31:15;7.07;;;4.28;;
11677;SDS011;5895;41.950;24.372;2024-02-21T12:33:43;4.82;;;4.43;;
11677;SDS011;5895;41.950;24.372;2024-02-21T12:36:10;7.35;;;6.65;;
11677;SDS011;5895;41.950;24.372;2024-02-21T12:38:37;7.80;;;6.28;;
11677;SDS011;5895;41.950;24.372;2024-02-21T12:41:04;8.50;;;7.53;;
11677;SDS011;5895;41.950;24.372;2024-02-21T12:43:32;6.53;;;5.93;;
11677;SDS011;5895;41.950;24.372;2024-02-21T12:46:01;19.15;;;12.27;;
11677;SDS011;5895;41.950;24.372;2024-02-21T12:48:28;6.60;;;6.00;;
11677;SDS011;5895;41.950;24.372;2024-02-21T12:50:55;7.65;;;6.82;;
11677;SDS011;5895;41.950;24.372;2024-02-21T12:53:22;6.63;;;5.18;;
11677;SDS011;5895;41.950;24.372;2024-02-21T12:55:49;5.13;;;4.63;;
11677;SDS011;5895;41.950;24.372;2024-02-21T12:58:16;5.70;;;5.20;;
11677;SDS011;5895;41.950;24.372;2024-02-21T13:00:43;7.07;;;6.35;;
11677;SDS011;5895;41.950;24.372;2024-02-21T13:03:12;6.68;;;6.00;;
11677;SDS011;5895;41.950;24.372;2024-02-21T13:05:39;6.57;;;5.97;;
11677;SDS011;5895;41.950;24.372;2024-02-21T13:08:07;8.15;;;7.38;;
11677;SDS011;5895;41.950;24.372;2024-02-21T13:10:35;6.40;;;5.63;;
11677;SDS011;5895;41.950;24.372;2024-02-21T13:13:02;5.75;;;5.20;;
11677;SDS011;5895;41.950;24.372;2024-02-21T13:15:29;5.18;;;4.68;;
11677;SDS011;5895;41.950;24.372;2024-02-21T13:17:56;4.93;;;4.43;;
11677;SDS011;5895;41.950;24.372;2024-02-21T13:20:25;5.18;;;4.68;;
11677;SDS011;5895;41.950;24.372;2024-02-21T13:22:54;4.78;;;4.38;;
11677;SDS011;5895;41.950;24.372;2024-02-21T13:25:21;5.30;;;4.90;;
11677;SDS011;5895;41.950;24.372;2024-02-21T13:27:48;5.88;;;4.50;;
11677;SDS011;5895;41.950;24.372;2024-02-21T13:30:15;5.10;;;4.70;;
11677;SDS011;5895;41.950;24.372;2024-02-21T13:32:43;5.45;;;4.95;;
11677;SDS011;5895;41.950;24.372;2024-02-21T13:35:12;5.70;;;5.20;;
11677;SDS011;5895;41.950;24.372;2024-02-21T13:37:41;5.38;;;4.88;;
11677;SDS011;5895;41.950;24.372;2024-02-21T13:40:08;10.35;;;6.70;;
11677;SDS011;5895;41.950;24.372;2024-02-21T13:42:36;5.25;;;4.82;;
11677;SDS011;5895;41.950;24.372;2024-02-21T13:45:03;7.32;;;5.78;;
11677;SDS011;5895;41.950;24.372;2024-02-21T13:47:32;7.75;;;6.20;;
11677;SDS011;5895;41.950;24.372;2024-02-21T13:49:59;6.63;;;5.82;;
11677;SDS011;5895;41.950;24.372;2024-02-21T13:52:26;6.22;;;5.63;;
11677;SDS011;5895;41.950;24.372;2024-02-21T13:54:54;6.05;;;5.45;;
11677;SDS011;5895;41.950;24.372;2024-02-21T13:57:21;6.72;;;5.50;;
11677;SDS011;5895;41.950;24.372;2024-02-21T13:59:48;5.70;;;5.20;;
11677;SDS011;5895;41.950;24.372;2024-02-21T14:02:16;5.03;;;4.60;;
11677;SDS011;5895;41.950;24.372;2024-02-21T14:04:43;5.18;;;4.68;;
11677;SDS011;5895;41.950;24.372;2024-02-21T14:07:10;6.60;;;5.18;;
11677;SDS011;5895;41.950;24.372;2024-02-21T14:09:37;11.65;;;7.82;;
11677;SDS011;5895;41.950;24.372;2024-02-21T14:12:06;7.97;;;6.90;;
11677;SDS011;5895;41.950;24.372;2024-02-21T14:14:34;10.07;;;8.20;;
11677;SDS011;5895;41.950;24.372;2024-02-21T14:17:02;10.45;;;7.32;;
11677;SDS011;5895;41.950;24.372;2024-02-21T14:19:30;7.82;;;6.35;;
11677;SDS011;5895;41.950;24.372;2024-02-21T14:21:57;6.70;;;6.05;;
11677;SDS011;5895;41.950;24.372;2024-02-21T14:24:24;7.32;;;6.55;;
11677;SDS011;5895;41.950;24.372;2024-02-21T14:26:53;8.50;;;7.60;;
11677;SDS011;5895;41.950;24.372;2024-02-21T14:29:21;6.57;;;5.85;;
11677;SDS011;5895;41.950;24.372;2024-02-21T14:31:49;9.23;;;6.82;;
11677;SDS011;5895;41.950;24.372;2024-02-21T14:34:16;6.07;;;5.50;;
11677;SDS011;5895;41.950;24.372;2024-02-21T14:36:43;6.10;;;5.50;;
11677;SDS011;5895;41.950;24.372;2024-02-21T14:39:10;6.50;;;5.80;;